createdAt,value
2018-01-24T00:00:30.667Z,33.70
2018-01-24T00:01:06.081Z,35.10
2018-01-24T00:01:41.363Z,39.20
2018-01-24T00:02:16.677Z,39.60
2018-01-24T00:02:52.055Z,39.40
2018-01-24T00:03:27.569Z,35.80
2018-01-24T00:04:02.745Z,37.00
2018-01-24T00:04:37.958Z,34.30
2018-01-24T00:05:13.439Z,36.50
2018-01-24T00:05:48.780Z,35.10
2018-01-24T00:06:24.059Z,34.70
2018-01-24T00:06:59.175Z,37.00
2018-01-24T00:07:34.257Z,36.00
2018-01-24T00:08:09.567Z,35.30
2018-01-24T00:08:44.855Z,35.40
2018-01-24T00:09:19.969Z,38.20
2018-01-24T00:09:55.054Z,39.10
2018-01-24T00:10:30.259Z,34.40
2018-01-24T00:11:05.676Z,32.60
2018-01-24T00:11:41.188Z,38.50
2018-01-24T00:12:16.476Z,34.70
2018-01-24T00:12:51.607Z,32.00
2018-01-24T00:13:27.195Z,34.90
2018-01-24T00:14:02.516Z,36.10
2018-01-24T00:14:37.715Z,36.10
2018-01-24T00:15:12.837Z,32.80
2018-01-24T00:15:48.432Z,38.00
2018-01-24T00:16:23.782Z,38.40
2018-01-24T00:16:59.286Z,35.50
2018-01-24T00:17:34.809Z,36.90
2018-01-24T00:18:10.101Z,36.70
2018-01-24T00:18:45.215Z,35.90
2018-01-24T00:19:20.626Z,36.30
2018-01-24T00:19:56.045Z,34.70
2018-01-24T00:20:31.553Z,38.70
2018-01-24T00:21:06.701Z,37.10
2018-01-24T00:21:42.000Z,34.60
2018-01-24T00:22:17.424Z,34.50
2018-01-24T00:22:53.011Z,38.70
2018-01-24T00:23:28.325Z,38.30
2018-01-24T00:24:03.516Z,37.40
2018-01-24T00:24:38.752Z,39.70
2018-01-24T00:25:14.261Z,40.10
2018-01-24T00:25:49.584Z,41.60
2018-01-24T00:26:24.989Z,36.40
2018-01-24T00:27:00.320Z,36.80
2018-01-24T00:27:35.489Z,40.50
2018-01-24T00:28:10.807Z,45.10
2018-01-24T00:28:46.211Z,50.40
2018-01-24T00:29:21.430Z,43.60
2018-01-24T00:29:56.819Z,38.90
2018-01-24T00:30:32.452Z,40.80
2018-01-24T00:31:07.745Z,40.40
2018-01-24T00:31:43.304Z,41.50
2018-01-24T00:32:18.534Z,38.90
2018-01-24T00:32:53.748Z,37.70
2018-01-24T00:33:28.941Z,41.50
2018-01-24T00:34:04.254Z,40.50
2018-01-24T00:34:39.435Z,40.20
2018-01-24T00:35:14.956Z,39.50
2018-01-24T00:35:49.935Z,40.80
2018-01-24T00:36:25.251Z,39.30
2018-01-24T00:37:00.435Z,42.20
2018-01-24T00:37:35.887Z,39.70
2018-01-24T00:38:11.380Z,41.20
2018-01-24T00:38:46.595Z,42.50
2018-01-24T00:39:22.181Z,39.80
2018-01-24T00:39:57.300Z,39.20
2018-01-24T00:40:32.388Z,43.30
2018-01-24T00:41:07.601Z,40.00
2018-01-24T00:41:43.089Z,38.30
2018-01-24T00:42:18.605Z,42.10
2018-01-24T00:42:53.715Z,42.50
2018-01-24T00:43:29.022Z,41.30
2018-01-24T00:44:04.602Z,41.30
2018-01-24T00:44:40.317Z,43.30
2018-01-24T00:45:15.498Z,41.40
2018-01-24T00:45:50.509Z,40.20
2018-01-24T00:46:26.289Z,40.60
2018-01-24T00:47:01.493Z,39.80
2018-01-24T00:47:37.070Z,40.80
2018-01-24T00:48:12.604Z,37.30
2018-01-24T00:48:47.585Z,36.70
2018-01-24T00:49:22.892Z,36.00
2018-01-24T00:49:58.280Z,36.70
2018-01-24T00:50:33.587Z,38.20
2018-01-24T00:51:08.979Z,40.30
2018-01-24T00:51:44.288Z,39.90
2018-01-24T00:52:19.387Z,40.70
2018-01-24T00:52:55.100Z,38.80
2018-01-24T00:53:30.305Z,38.20
2018-01-24T00:54:05.513Z,40.50
2018-01-24T00:54:41.097Z,41.60
2018-01-24T00:55:16.110Z,39.90
2018-01-24T00:55:51.695Z,36.90
2018-01-24T00:56:27.101Z,35.80
2018-01-24T00:57:02.389Z,36.90
2018-01-24T00:57:38.109Z,37.00
2018-01-24T00:58:13.302Z,37.80
2018-01-24T00:58:48.846Z,36.60
2018-01-24T00:59:24.343Z,35.40
2018-01-24T00:59:59.754Z,35.40
2018-01-24T01:00:35.058Z,39.40
2018-01-24T01:01:10.385Z,37.10
2018-01-24T01:01:45.660Z,35.30
2018-01-24T01:02:21.170Z,35.90
2018-01-24T01:02:56.467Z,38.70
2018-01-24T01:03:31.986Z,40.70
2018-01-24T01:04:07.012Z,38.10
2018-01-24T01:04:42.026Z,35.20
2018-01-24T01:05:17.317Z,35.70
2018-01-24T01:05:52.659Z,38.10
2018-01-24T01:06:28.136Z,34.70
2018-01-24T01:07:03.451Z,36.70
2018-01-24T01:07:38.851Z,34.60
2018-01-24T01:08:14.269Z,37.00
2018-01-24T01:08:49.765Z,38.60
2018-01-24T01:09:25.304Z,39.50
2018-01-24T01:10:00.680Z,38.80
2018-01-24T01:10:36.146Z,34.60
2018-01-24T01:11:11.375Z,38.10
2018-01-24T01:11:47.006Z,39.80
2018-01-24T01:12:22.298Z,37.00
2018-01-24T01:12:57.813Z,37.50
2018-01-24T01:13:33.105Z,34.20
2018-01-24T01:14:08.320Z,37.80
2018-01-24T01:14:43.437Z,38.50
2018-01-24T01:15:18.750Z,32.70
2018-01-24T01:15:54.053Z,37.60
2018-01-24T01:16:29.378Z,37.90
2018-01-24T01:17:04.956Z,35.80
2018-01-24T01:17:40.275Z,38.30
2018-01-24T01:18:15.753Z,37.70
2018-01-24T01:18:51.489Z,40.90
2018-01-24T01:19:27.211Z,36.70
2018-01-24T01:20:02.543Z,36.70
2018-01-24T01:20:38.032Z,36.70
2018-01-24T01:21:13.555Z,37.20
2018-01-24T01:21:48.845Z,38.50
2018-01-24T01:22:24.058Z,36.80
2018-01-24T01:22:59.559Z,32.90
2018-01-24T01:23:35.068Z,34.70
2018-01-24T01:24:10.444Z,34.20
2018-01-24T01:24:46.086Z,34.20
2018-01-24T01:25:21.179Z,34.50
2018-01-24T01:25:56.697Z,38.60
2018-01-24T01:26:31.985Z,39.30
2018-01-24T01:27:07.502Z,36.20
2018-01-24T01:27:42.699Z,35.90
2018-01-24T01:28:18.026Z,37.40
2018-01-24T01:28:53.116Z,36.50
2018-01-24T01:29:28.440Z,35.40
2018-01-24T01:30:03.766Z,37.90
2018-01-24T01:30:39.892Z,41.00
2018-01-24T01:31:15.172Z,38.60
2018-01-24T01:31:50.482Z,35.30
2018-01-24T01:32:25.874Z,35.90
2018-01-24T01:33:01.288Z,36.00
2018-01-24T01:33:36.976Z,37.60
2018-01-24T01:34:12.289Z,35.80
2018-01-24T01:34:47.586Z,33.30
2018-01-24T01:35:23.219Z,35.10
2018-01-24T01:35:58.504Z,36.00
2018-01-24T01:36:34.225Z,35.20
2018-01-24T01:37:09.406Z,34.60
2018-01-24T01:37:44.809Z,35.90
2018-01-24T01:38:20.090Z,35.60
2018-01-24T01:38:56.095Z,37.30
2018-01-24T01:39:31.582Z,39.00
2018-01-24T01:40:06.928Z,36.80
2018-01-24T01:40:42.116Z,43.30
2018-01-24T01:41:17.427Z,41.30
2018-01-24T01:41:52.825Z,34.10
2018-01-24T01:42:28.330Z,35.70
2018-01-24T01:43:03.815Z,39.10
2018-01-24T01:43:39.148Z,39.30
2018-01-24T01:44:14.639Z,35.50
2018-01-24T01:44:50.060Z,37.80
2018-01-24T01:45:25.491Z,36.00
2018-01-24T01:46:00.803Z,34.90
2018-01-24T01:46:36.700Z,36.50
2018-01-24T01:47:11.910Z,39.50
2018-01-24T01:47:47.200Z,42.30
2018-01-24T01:48:22.503Z,44.60
2018-01-24T01:48:58.100Z,43.30
2018-01-24T01:49:33.328Z,37.20
2018-01-24T01:50:08.315Z,38.30
2018-01-24T01:50:43.647Z,36.10
2018-01-24T01:51:19.134Z,37.00
2018-01-24T01:51:54.455Z,37.40
2018-01-24T01:52:29.854Z,36.70
2018-01-24T01:53:05.272Z,37.00
2018-01-24T01:53:40.769Z,38.20
2018-01-24T01:54:16.192Z,33.20
2018-01-24T01:54:51.391Z,33.20
2018-01-24T01:55:26.604Z,33.70
2018-01-24T01:56:01.829Z,35.60
2018-01-24T01:56:37.060Z,36.90
2018-01-24T01:57:12.539Z,35.70
2018-01-24T01:57:47.936Z,34.80
2018-01-24T01:58:23.416Z,33.00
2018-01-24T01:58:59.030Z,31.70
2018-01-24T01:59:34.314Z,35.30
2018-01-24T02:00:09.419Z,34.70
2018-01-24T02:00:45.818Z,32.50
2018-01-24T02:01:21.378Z,32.40
2018-01-24T02:01:56.553Z,35.50
2018-01-24T02:02:31.984Z,35.10
2018-01-24T02:03:07.479Z,36.80
2018-01-24T02:03:42.771Z,31.20
2018-01-24T02:04:17.862Z,34.40
2018-01-24T02:04:53.267Z,35.10
2018-01-24T02:05:28.442Z,33.20
2018-01-24T02:06:03.550Z,30.90
2018-01-24T02:06:39.081Z,31.40
2018-01-24T02:07:14.481Z,32.50
2018-01-24T02:07:49.864Z,31.90
2018-01-24T02:08:25.181Z,29.70
2018-01-24T02:09:00.462Z,32.30
2018-01-24T02:09:35.869Z,32.80
2018-01-24T02:10:11.244Z,33.30
2018-01-24T02:10:46.763Z,32.10
2018-01-24T02:11:22.161Z,31.60
2018-01-24T02:11:57.622Z,31.50
2018-01-24T02:12:33.420Z,31.40
2018-01-24T02:13:08.835Z,31.90
2018-01-24T02:13:44.023Z,29.80
2018-01-24T02:14:19.536Z,32.00
2018-01-24T02:14:54.718Z,30.10
2018-01-24T02:15:30.029Z,32.40
2018-01-24T02:16:05.313Z,32.30
2018-01-24T02:16:40.537Z,27.00
2018-01-24T02:17:30.395Z,29.50
2018-01-24T02:18:05.838Z,26.90
2018-01-24T02:18:41.026Z,28.70
2018-01-24T02:19:16.264Z,31.10
2018-01-24T02:19:51.675Z,28.90
2018-01-24T02:20:27.095Z,27.10
2018-01-24T02:21:02.284Z,29.10
2018-01-24T02:21:37.624Z,31.10
2018-01-24T02:22:13.134Z,28.80
2018-01-24T02:22:48.582Z,27.60
2018-01-24T02:23:24.192Z,26.30
2018-01-24T02:23:59.422Z,27.20
2018-01-24T02:24:34.757Z,29.60
2018-01-24T02:25:12.664Z,30.40
2018-01-24T02:25:50.585Z,26.50
2018-01-24T02:26:26.217Z,25.20
2018-01-24T02:27:01.418Z,26.10
2018-01-24T02:27:36.737Z,30.40
2018-01-24T02:28:12.352Z,28.10
2018-01-24T02:28:47.553Z,28.50
2018-01-24T02:29:22.831Z,26.80
2018-01-24T02:29:58.152Z,25.50
2018-01-24T02:30:33.640Z,25.50
2018-01-24T02:31:09.041Z,27.90
2018-01-24T02:31:44.545Z,28.30
2018-01-24T02:32:20.043Z,25.80
2018-01-24T02:32:55.623Z,23.60
2018-01-24T02:33:31.163Z,27.20
2018-01-24T02:34:06.644Z,27.70
2018-01-24T02:34:41.771Z,25.80
2018-01-24T02:35:16.958Z,26.40
2018-01-24T02:35:52.913Z,26.60
2018-01-24T02:36:28.202Z,25.70
2018-01-24T02:37:03.724Z,26.90
2018-01-24T02:37:38.924Z,29.80
2018-01-24T02:38:13.942Z,26.80
2018-01-24T02:38:49.363Z,24.90
2018-01-24T02:39:24.579Z,25.80
2018-01-24T02:40:00.073Z,25.90
2018-01-24T02:40:35.289Z,25.80
2018-01-24T02:41:10.583Z,23.60
2018-01-24T02:41:45.910Z,27.10
2018-01-24T02:42:21.202Z,27.00
2018-01-24T02:42:56.429Z,24.10
2018-01-24T02:43:31.728Z,25.20
2018-01-24T02:44:07.174Z,28.00
2018-01-24T02:44:42.667Z,25.30
2018-01-24T02:45:17.886Z,24.40
2018-01-24T02:45:53.180Z,25.00
2018-01-24T02:46:28.612Z,24.00
2018-01-24T02:47:03.916Z,24.30
2018-01-24T02:47:38.945Z,24.60
2018-01-24T02:48:14.145Z,24.20
2018-01-24T02:48:49.570Z,23.80
2018-01-24T02:49:24.795Z,24.80
2018-01-24T02:50:00.073Z,24.20
2018-01-24T02:50:35.743Z,21.80
2018-01-24T02:51:11.073Z,23.30
2018-01-24T02:51:46.786Z,21.50
2018-01-24T02:52:22.621Z,22.60
2018-01-24T02:52:57.850Z,23.20
2018-01-24T02:53:33.443Z,22.50
2018-01-24T02:54:08.440Z,24.20
2018-01-24T02:54:44.199Z,25.60
2018-01-24T02:55:19.484Z,25.20
2018-01-24T02:55:54.802Z,24.00
2018-01-24T02:56:30.205Z,22.50
2018-01-24T02:57:05.429Z,23.50
2018-01-24T02:57:41.228Z,33.60
2018-01-24T02:58:16.654Z,32.90
2018-01-24T02:58:51.851Z,24.20
2018-01-24T02:59:27.185Z,25.60
2018-01-24T03:00:02.325Z,25.80
2018-01-24T03:00:39.946Z,25.40
2018-01-24T03:01:15.435Z,26.30
2018-01-24T03:01:50.750Z,25.50
2018-01-24T03:02:26.350Z,25.50
2018-01-24T03:03:01.582Z,24.70
2018-01-24T03:03:36.782Z,25.40
2018-01-24T03:04:12.299Z,27.90
2018-01-24T03:04:47.505Z,26.90
2018-01-24T03:05:22.748Z,27.40
2018-01-24T03:05:58.059Z,25.90
2018-01-24T03:06:33.189Z,26.10
2018-01-24T03:07:08.602Z,28.50
2018-01-24T03:07:43.819Z,30.20
2018-01-24T03:08:18.903Z,29.20
2018-01-24T03:08:54.331Z,25.60
2018-01-24T03:09:29.417Z,26.30
2018-01-24T03:10:04.948Z,24.80
2018-01-24T03:10:40.268Z,28.50
2018-01-24T03:11:15.885Z,27.30
2018-01-24T03:11:51.385Z,26.00
2018-01-24T03:12:26.604Z,28.40
2018-01-24T03:13:01.789Z,31.20
2018-01-24T03:13:37.220Z,30.70
2018-01-24T03:14:12.516Z,29.40
2018-01-24T03:14:47.637Z,27.00
2018-01-24T03:15:23.028Z,23.90
2018-01-24T03:15:58.281Z,24.50
2018-01-24T03:16:33.475Z,26.20
2018-01-24T03:17:08.891Z,28.30
2018-01-24T03:17:44.289Z,31.00
2018-01-24T03:18:20.916Z,26.10
2018-01-24T03:18:56.312Z,29.40
2018-01-24T03:19:31.441Z,35.10
2018-01-24T03:20:06.832Z,28.50
2018-01-24T03:20:42.451Z,27.30
2018-01-24T03:21:17.667Z,24.60
2018-01-24T03:21:52.995Z,26.60
2018-01-24T03:22:28.192Z,25.30
2018-01-24T03:23:03.719Z,24.70
2018-01-24T03:23:39.009Z,25.20
2018-01-24T03:24:14.429Z,26.20
2018-01-24T03:24:49.626Z,25.20
2018-01-24T03:25:24.943Z,25.90
2018-01-24T03:26:00.533Z,26.00
2018-01-24T03:26:37.289Z,26.90
2018-01-24T03:27:12.692Z,26.30
2018-01-24T03:27:48.023Z,27.70
2018-01-24T03:28:23.220Z,31.50
2018-01-24T03:28:58.536Z,30.30
2018-01-24T03:29:33.833Z,24.50
2018-01-24T03:30:09.260Z,25.40
2018-01-24T03:30:45.564Z,26.20
2018-01-24T03:31:20.995Z,26.40
2018-01-24T03:31:56.512Z,25.90
2018-01-24T03:32:31.731Z,26.80
2018-01-24T03:33:07.329Z,25.80
2018-01-24T03:33:42.748Z,23.20
2018-01-24T03:34:17.933Z,24.00
2018-01-24T03:34:52.855Z,24.50
2018-01-24T03:35:28.154Z,24.00
2018-01-24T03:36:03.678Z,26.10
2018-01-24T03:36:38.975Z,25.40
2018-01-24T03:37:14.333Z,22.70
2018-01-24T03:37:49.824Z,25.30
2018-01-24T03:38:25.050Z,23.70
2018-01-24T03:39:00.242Z,24.10
2018-01-24T03:39:35.569Z,26.10
2018-01-24T03:40:11.258Z,25.60
2018-01-24T03:40:46.687Z,24.70
2018-01-24T03:41:21.682Z,27.20
2018-01-24T03:41:57.801Z,26.80
2018-01-24T03:42:33.328Z,23.70
2018-01-24T03:43:08.859Z,27.60
2018-01-24T03:43:44.161Z,24.20
2018-01-24T03:44:19.288Z,24.70
2018-01-24T03:44:54.480Z,28.80
2018-01-24T03:45:29.799Z,21.60
2018-01-24T03:46:05.083Z,20.10
2018-01-24T03:46:40.913Z,24.90
2018-01-24T03:47:16.607Z,26.30
2018-01-24T03:47:51.766Z,22.30
2018-01-24T03:48:27.057Z,21.80
2018-01-24T03:49:02.391Z,26.40
2018-01-24T03:49:38.081Z,24.80
2018-01-24T03:50:13.306Z,23.10
2018-01-24T03:50:48.803Z,21.20
2018-01-24T03:51:24.133Z,19.30
2018-01-24T03:51:59.531Z,24.20
2018-01-24T03:52:34.943Z,23.20
2018-01-24T03:53:10.172Z,24.00
2018-01-24T03:53:45.498Z,22.90
2018-01-24T03:54:21.000Z,22.80
2018-01-24T03:54:56.529Z,25.60
2018-01-24T03:55:31.723Z,25.40
2018-01-24T03:56:07.146Z,24.10
2018-01-24T03:56:42.433Z,25.70
2018-01-24T03:57:17.758Z,23.90
2018-01-24T03:57:53.047Z,21.90
2018-01-24T03:58:28.198Z,22.70
2018-01-24T03:59:03.785Z,22.30
2018-01-24T03:59:39.108Z,23.30
2018-01-24T04:00:14.314Z,24.30
2018-01-24T04:00:50.946Z,23.30
2018-01-24T04:01:26.330Z,21.80
2018-01-24T04:02:01.757Z,22.80
2018-01-24T04:02:37.351Z,25.20
2018-01-24T04:03:12.685Z,26.70
2018-01-24T04:03:48.406Z,25.60
2018-01-24T04:04:24.034Z,22.20
2018-01-24T04:04:59.324Z,23.40
2018-01-24T04:05:34.635Z,23.90
2018-01-24T04:06:10.233Z,27.60
2018-01-24T04:06:45.261Z,27.50
2018-01-24T04:07:20.559Z,24.10
2018-01-24T04:07:55.787Z,26.10
2018-01-24T04:08:30.878Z,24.90
2018-01-24T04:09:06.323Z,23.90
2018-01-24T04:09:43.635Z,24.40
2018-01-24T04:10:19.054Z,24.00
2018-01-24T04:10:54.550Z,26.90
2018-01-24T04:11:29.962Z,26.10
2018-01-24T04:12:05.174Z,26.00
2018-01-24T04:12:40.406Z,26.40
2018-01-24T04:13:15.898Z,27.40
2018-01-24T04:13:51.420Z,25.40
2018-01-24T04:14:26.643Z,26.90
2018-01-24T04:15:01.964Z,24.00
2018-01-24T04:15:38.180Z,26.00
2018-01-24T04:16:13.803Z,26.10
2018-01-24T04:16:49.393Z,24.00
2018-01-24T04:17:24.622Z,24.10
2018-01-24T04:17:59.929Z,24.40
2018-01-24T04:18:35.440Z,23.70
2018-01-24T04:19:10.750Z,24.50
2018-01-24T04:19:46.099Z,25.70
2018-01-24T04:20:21.422Z,25.20
2018-01-24T04:20:57.246Z,24.20
2018-01-24T04:21:32.633Z,23.40
2018-01-24T04:22:08.167Z,23.20
2018-01-24T04:22:43.362Z,23.80
2018-01-24T04:23:18.775Z,29.10
2018-01-24T04:23:53.974Z,30.60
2018-01-24T04:24:29.427Z,30.60
2018-01-24T04:25:04.755Z,28.50
2018-01-24T04:25:40.186Z,25.20
2018-01-24T04:26:15.574Z,25.90
2018-01-24T04:26:51.186Z,25.00
2018-01-24T04:27:26.384Z,27.10
2018-01-24T04:28:01.903Z,27.30
2018-01-24T04:28:37.197Z,24.60
2018-01-24T04:29:12.516Z,23.10
2018-01-24T04:29:47.807Z,22.70
2018-01-24T04:30:23.146Z,23.40
2018-01-24T04:30:58.235Z,24.60
2018-01-24T04:31:33.759Z,25.90
2018-01-24T04:32:09.849Z,27.20
2018-01-24T04:32:45.068Z,26.50
2018-01-24T04:33:20.363Z,26.60
2018-01-24T04:33:55.793Z,23.60
2018-01-24T04:34:31.594Z,26.10
2018-01-24T04:35:07.319Z,27.60
2018-01-24T04:35:42.756Z,27.60
2018-01-24T04:36:18.176Z,26.90
2018-01-24T04:36:53.566Z,23.90
2018-01-24T04:37:28.994Z,24.90
2018-01-24T04:38:04.181Z,25.60
2018-01-24T04:38:39.902Z,26.40
2018-01-24T04:39:15.109Z,28.10
2018-01-24T04:39:50.325Z,26.20
2018-01-24T04:40:25.823Z,23.80
2018-01-24T04:41:01.170Z,24.20
2018-01-24T04:41:36.363Z,23.40
2018-01-24T04:42:11.786Z,23.80
2018-01-24T04:42:47.090Z,22.70
2018-01-24T04:43:22.709Z,24.50
2018-01-24T04:43:58.104Z,24.70
2018-01-24T04:44:33.541Z,23.50
2018-01-24T04:45:09.030Z,25.60
2018-01-24T04:45:44.451Z,24.40
2018-01-24T04:46:19.876Z,25.30
2018-01-24T04:46:55.296Z,25.10
2018-01-24T04:47:30.892Z,24.10
2018-01-24T04:48:06.408Z,25.90
2018-01-24T04:48:41.407Z,27.50
2018-01-24T04:49:16.535Z,26.20
2018-01-24T04:49:51.830Z,24.30
2018-01-24T04:50:27.353Z,24.20
2018-01-24T04:51:02.649Z,24.10
2018-01-24T04:51:38.000Z,24.10
2018-01-24T04:52:13.294Z,27.20
2018-01-24T04:52:48.914Z,26.00
2018-01-24T04:53:24.608Z,25.60
2018-01-24T04:53:59.932Z,26.50
2018-01-24T04:54:35.420Z,25.90
2018-01-24T04:55:10.649Z,23.30
2018-01-24T04:55:45.840Z,22.90
2018-01-24T04:56:21.491Z,23.10
2018-01-24T04:56:56.925Z,32.60
2018-01-24T04:57:32.148Z,28.30
2018-01-24T04:58:07.356Z,27.10
2018-01-24T04:58:42.674Z,27.90
2018-01-24T04:59:18.275Z,27.40
2018-01-24T04:59:53.397Z,29.10
2018-01-24T05:00:28.592Z,27.80
2018-01-24T05:01:04.108Z,25.40
2018-01-24T05:01:39.403Z,26.30
2018-01-24T05:02:14.756Z,27.00
2018-01-24T05:02:49.969Z,26.10
2018-01-24T05:03:25.397Z,25.10
2018-01-24T05:04:00.683Z,24.00
2018-01-24T05:04:35.912Z,24.20
2018-01-24T05:05:11.518Z,27.00
2018-01-24T05:05:46.950Z,26.40
2018-01-24T05:06:22.663Z,24.50
2018-01-24T05:06:58.091Z,27.10
2018-01-24T05:07:33.339Z,28.20
2018-01-24T05:08:09.068Z,27.40
2018-01-24T05:08:44.372Z,27.70
2018-01-24T05:09:19.307Z,26.00
2018-01-24T05:09:54.701Z,32.00
2018-01-24T05:10:29.851Z,27.80
2018-01-24T05:11:05.249Z,27.00
2018-01-24T05:11:40.778Z,27.50
2018-01-24T05:12:16.016Z,32.00
2018-01-24T05:12:51.551Z,30.80
2018-01-24T05:13:26.930Z,28.00
2018-01-24T05:14:02.637Z,27.70
2018-01-24T05:14:38.138Z,29.90
2018-01-24T05:15:13.339Z,31.90
2018-01-24T05:15:48.719Z,31.40
2018-01-24T05:16:23.835Z,29.90
2018-01-24T05:16:59.111Z,30.20
2018-01-24T05:17:34.245Z,32.90
2018-01-24T05:18:09.522Z,31.00
2018-01-24T05:18:44.928Z,34.00
2018-01-24T05:19:20.005Z,35.30
2018-01-24T05:19:55.212Z,31.50
2018-01-24T05:20:30.584Z,32.20
2018-01-24T05:21:06.102Z,31.30
2018-01-24T05:21:41.481Z,27.60
2018-01-24T05:22:16.693Z,30.50
2018-01-24T05:22:52.007Z,32.60
2018-01-24T05:23:27.351Z,31.80
2018-01-24T05:24:02.535Z,30.50
2018-01-24T05:24:37.945Z,33.40
2018-01-24T05:25:13.631Z,32.70
2018-01-24T05:25:49.037Z,33.60
2018-01-24T05:26:24.626Z,35.10
2018-01-24T05:27:00.042Z,32.80
2018-01-24T05:27:35.325Z,32.70
2018-01-24T05:28:10.866Z,35.10
2018-01-24T05:28:46.151Z,36.40
2018-01-24T05:29:22.004Z,31.70
2018-01-24T05:29:57.490Z,30.40
2018-01-24T05:30:32.812Z,34.50
2018-01-24T05:31:08.098Z,34.30
2018-01-24T05:31:43.407Z,33.60
2018-01-24T05:32:18.689Z,31.20
2018-01-24T05:32:53.999Z,30.70
2018-01-24T05:33:29.506Z,33.20
2018-01-24T05:34:04.819Z,33.40
2018-01-24T05:34:41.004Z,30.30
2018-01-24T05:35:16.519Z,28.70
2018-01-24T05:35:51.603Z,28.20
2018-01-24T05:36:27.397Z,27.50
2018-01-24T05:37:02.881Z,27.60
2018-01-24T05:37:38.592Z,34.20
2018-01-24T05:38:13.885Z,34.30
2018-01-24T05:38:49.134Z,31.60
2018-01-24T05:39:24.538Z,29.30
2018-01-24T05:39:59.838Z,27.00
2018-01-24T05:40:35.216Z,31.50
2018-01-24T05:41:10.419Z,31.20
2018-01-24T05:41:45.801Z,27.30
2018-01-24T05:42:21.020Z,30.50
2018-01-24T05:42:56.501Z,33.40
2018-01-24T05:43:31.822Z,31.90
2018-01-24T05:44:07.235Z,29.90
2018-01-24T05:44:42.446Z,27.00
2018-01-24T05:45:17.632Z,26.40
2018-01-24T05:45:52.852Z,28.90
2018-01-24T05:46:28.040Z,25.50
2018-01-24T05:47:03.073Z,24.50
2018-01-24T05:47:38.460Z,26.70
2018-01-24T05:48:13.769Z,26.30
2018-01-24T05:48:49.153Z,25.00
2018-01-24T05:49:24.495Z,24.50
2018-01-24T05:50:00.278Z,23.20
2018-01-24T05:50:36.297Z,24.60
2018-01-24T05:51:11.590Z,24.00
2018-01-24T05:51:46.911Z,23.60
2018-01-24T05:52:22.097Z,24.40
2018-01-24T05:52:57.608Z,24.10
2018-01-24T05:53:32.788Z,23.70
2018-01-24T05:54:08.103Z,25.10
2018-01-24T05:54:43.819Z,23.10
2018-01-24T05:55:19.140Z,23.40
2018-01-24T05:55:54.425Z,22.90
2018-01-24T05:56:29.740Z,22.40
2018-01-24T05:57:05.125Z,23.60
2018-01-24T05:57:40.531Z,21.30
2018-01-24T05:58:15.821Z,22.30
2018-01-24T05:58:51.237Z,20.70
2018-01-24T05:59:26.623Z,17.80
2018-01-24T06:00:01.978Z,18.00
2018-01-24T06:00:37.658Z,17.50
2018-01-24T06:01:13.174Z,19.80
2018-01-24T06:01:48.564Z,20.40
2018-01-24T06:02:23.976Z,17.20
2018-01-24T06:02:59.063Z,16.30
2018-01-24T06:03:34.489Z,16.10
2018-01-24T06:04:10.092Z,15.80
2018-01-24T06:04:45.105Z,16.10
2018-01-24T06:05:20.638Z,16.60
2018-01-24T06:05:56.135Z,17.60
2018-01-24T06:06:31.520Z,15.80
2018-01-24T06:07:07.038Z,15.90
2018-01-24T06:07:42.222Z,14.90
2018-01-24T06:08:17.537Z,13.50
2018-01-24T06:08:52.829Z,15.70
2018-01-24T06:09:28.248Z,16.80
2018-01-24T06:10:03.530Z,19.10
2018-01-24T06:10:39.072Z,20.70
2018-01-24T06:11:14.557Z,18.40
2018-01-24T06:11:49.675Z,14.20
2018-01-24T06:12:24.874Z,14.20
2018-01-24T06:13:00.086Z,15.30
2018-01-24T06:13:35.374Z,14.70
2018-01-24T06:14:10.584Z,13.30
2018-01-24T06:14:45.969Z,12.50
2018-01-24T06:15:21.394Z,12.20
2018-01-24T06:15:56.712Z,12.80
2018-01-24T06:16:31.827Z,12.10
2018-01-24T06:17:07.105Z,13.90
2018-01-24T06:17:42.621Z,12.30
2018-01-24T06:18:18.105Z,12.30
2018-01-24T06:18:53.316Z,13.50
2018-01-24T06:19:28.897Z,11.60
2018-01-24T06:20:04.203Z,9.60
2018-01-24T06:20:39.699Z,9.70
2018-01-24T06:21:15.130Z,11.30
2018-01-24T06:21:50.370Z,14.10
2018-01-24T06:22:25.524Z,12.30
2018-01-24T06:23:01.030Z,10.30
2018-01-24T06:23:36.422Z,10.50
2018-01-24T06:24:11.630Z,9.00
2018-01-24T06:24:46.940Z,10.70
2018-01-24T06:25:22.446Z,10.80
2018-01-24T06:25:57.946Z,10.80
2018-01-24T06:26:33.455Z,10.50
2018-01-24T06:27:08.870Z,10.10
2018-01-24T06:27:44.262Z,9.30
2018-01-24T06:28:19.580Z,12.00
2018-01-24T06:28:54.765Z,10.70
2018-01-24T06:29:29.883Z,10.30
2018-01-24T06:30:05.086Z,9.80
2018-01-24T06:30:41.205Z,7.80
2018-01-24T06:31:16.619Z,11.20
2018-01-24T06:31:52.329Z,10.90
2018-01-24T06:32:27.552Z,9.60
2018-01-24T06:33:02.848Z,11.40
2018-01-24T06:33:38.382Z,11.00
2018-01-24T06:34:13.769Z,8.90
2018-01-24T06:34:49.277Z,8.70
2018-01-24T06:35:24.560Z,8.30
2018-01-24T06:35:59.769Z,6.60
2018-01-24T06:36:35.088Z,6.60
2018-01-24T06:37:10.409Z,7.10
2018-01-24T06:37:46.020Z,7.20
2018-01-24T06:38:21.312Z,7.80
2018-01-24T06:38:56.619Z,5.70
2018-01-24T06:39:31.806Z,7.00
2018-01-24T06:40:07.112Z,9.20
2018-01-24T06:40:42.295Z,10.60
2018-01-24T06:41:17.805Z,8.50
2018-01-24T06:41:53.219Z,6.70
2018-01-24T06:42:28.631Z,4.90
2018-01-24T06:43:04.014Z,6.00
2018-01-24T06:43:39.528Z,5.90
2018-01-24T06:44:14.943Z,7.00
2018-01-24T06:44:50.045Z,6.30
2018-01-24T06:45:25.462Z,6.70
2018-01-24T06:46:00.544Z,6.50
2018-01-24T06:46:35.987Z,6.10
2018-01-24T06:47:11.288Z,6.40
2018-01-24T06:47:46.846Z,7.40
2018-01-24T06:48:22.290Z,6.80
2018-01-24T06:48:57.601Z,6.80
2018-01-24T06:49:33.225Z,6.40
2018-01-24T06:50:08.517Z,8.50
2018-01-24T06:50:43.933Z,7.90
2018-01-24T06:51:19.322Z,6.50
2018-01-24T06:51:54.736Z,6.40
2018-01-24T06:52:30.248Z,5.50
2018-01-24T06:53:05.668Z,6.10
2018-01-24T06:53:41.079Z,6.80
2018-01-24T06:54:16.384Z,5.60
2018-01-24T06:54:51.805Z,5.20
2018-01-24T06:55:27.898Z,5.60
2018-01-24T06:56:03.210Z,7.60
2018-01-24T06:56:38.601Z,6.90
2018-01-24T06:57:13.927Z,7.10
2018-01-24T06:57:49.368Z,7.90
2018-01-24T06:58:24.482Z,5.50
2018-01-24T06:58:59.768Z,5.80
2018-01-24T06:59:34.978Z,5.40
2018-01-24T07:00:10.264Z,5.40
2018-01-24T07:00:46.578Z,5.90
2018-01-24T07:01:21.794Z,6.10
2018-01-24T07:01:57.183Z,6.00
2018-01-24T07:02:32.491Z,7.60
2018-01-24T07:03:08.109Z,7.50
2018-01-24T07:03:43.319Z,8.30
2018-01-24T07:04:18.801Z,5.70
2018-01-24T07:04:54.853Z,6.10
2018-01-24T07:05:30.136Z,6.40
2018-01-24T07:06:05.448Z,6.00
2018-01-24T07:06:41.064Z,4.80
2018-01-24T07:07:16.654Z,5.30
2018-01-24T07:07:52.071Z,5.40
2018-01-24T07:08:27.581Z,5.10
2018-01-24T07:09:02.794Z,7.10
2018-01-24T07:09:38.380Z,7.50
2018-01-24T07:10:14.193Z,5.40
2018-01-24T07:10:49.587Z,5.90
2018-01-24T07:11:25.497Z,6.20
2018-01-24T07:12:00.710Z,6.10
2018-01-24T07:12:36.005Z,5.80
2018-01-24T07:13:11.441Z,8.10
2018-01-24T07:13:46.648Z,8.80
2018-01-24T07:14:21.868Z,6.10
2018-01-24T07:14:57.354Z,6.00
2018-01-24T07:15:32.568Z,6.50
2018-01-24T07:16:08.051Z,6.00
2018-01-24T07:16:43.281Z,6.00
2018-01-24T07:17:18.362Z,4.60
2018-01-24T07:17:53.584Z,5.90
2018-01-24T07:18:28.996Z,5.90
2018-01-24T07:19:04.414Z,7.40
2018-01-24T07:19:40.631Z,7.40
2018-01-24T07:20:16.130Z,5.00
2018-01-24T07:20:51.452Z,6.30
2018-01-24T07:21:26.637Z,5.20
2018-01-24T07:22:01.943Z,5.30
2018-01-24T07:22:37.365Z,6.30
2018-01-24T07:23:12.953Z,5.20
2018-01-24T07:23:48.247Z,4.80
2018-01-24T07:24:23.587Z,5.10
2018-01-24T07:24:59.207Z,5.30
2018-01-24T07:25:34.696Z,5.00
2018-01-24T07:26:10.023Z,6.10
2018-01-24T07:26:45.308Z,7.10
2018-01-24T07:27:21.018Z,4.60
2018-01-24T07:27:56.104Z,5.00
2018-01-24T07:28:31.511Z,6.00
2018-01-24T07:29:06.805Z,5.20
2018-01-24T07:29:42.352Z,4.30
2018-01-24T07:30:17.671Z,5.60
2018-01-24T07:30:53.059Z,7.00
2018-01-24T07:31:28.275Z,5.60
2018-01-24T07:32:03.603Z,4.60
2018-01-24T07:32:39.019Z,5.00
2018-01-24T07:33:14.219Z,4.80
2018-01-24T07:33:49.927Z,3.90
2018-01-24T07:34:25.215Z,5.20
2018-01-24T07:35:00.851Z,6.50
2018-01-24T07:35:36.466Z,5.60
2018-01-24T07:36:11.652Z,4.30
2018-01-24T07:36:46.874Z,6.80
2018-01-24T07:37:22.464Z,6.40
2018-01-24T07:37:58.183Z,7.30
2018-01-24T07:38:33.264Z,5.50